Time;durP1;ratioP1;P1;durP2;ratioP2;P2;SDS_P1;SDS_P2;PMS_P1;PMS_P2;Temp;Humidity;BMP_temperature;BMP_pressure;BME280_temperature;BME280_humidity;BME280_pressure;Samples;Min_cycle;Max_cycle;Signal;HPM_P1;HPM_P2
2022/08/03 00:01:57;;;;;;;4.05;2.38;;;19.90;99.90;;;;;;6195357;23;20016;-78
2022/08/03 00:04:29;;;;;;;4.93;1.73;;;19.80;99.90;;;;;;6170919;23;20004;-79
2022/08/03 00:06:54;;;;;;;4.72;2.53;;;19.80;99.90;;;;;;6170852;23;20299;-78
2022/08/03 00:09:20;;;;;;;6.82;2.53;;;19.80;99.90;;;;;;6124077;23;20015;-78
2022/08/03 00:11:46;;;;;;;7.18;2.60;;;19.70;99.90;;;;;;6172577;23;20008;-78
2022/08/03 00:14:11;;;;;;;6.03;2.80;;;19.80;99.90;;;;;;6173585;23;20023;-79
2022/08/03 00:16:37;;;;;;;6.00;2.40;;;19.70;99.90;;;;;;6148513;23;20009;-80
2022/08/03 00:19:03;;;;;;;5.93;2.53;;;19.70;99.90;;;;;;6173834;23;20012;-78
2022/08/03 00:21:29;;;;;;;9.60;2.80;;;19.70;99.90;;;;;;6147954;23;20016;-76
2022/08/03 00:23:55;;;;;;;7.32;2.22;;;19.70;99.90;;;;;;6173077;23;20016;-79
2022/08/03 00:26:21;;;;;;;6.20;2.40;;;19.80;99.90;;;;;;6148226;23;20137;-78
2022/08/03 00:28:47;;;;;;;5.53;2.45;;;19.80;99.90;;;;;;6173225;23;20062;-77
2022/08/03 00:31:13;;;;;;;6.18;2.35;;;19.90;99.90;;;;;;6173761;23;20019;-77
2022/08/03 00:33:39;;;;;;;4.05;2.30;;;19.70;99.90;;;;;;6171771;23;20020;-76
2022/08/03 00:36:05;;;;;;;5.45;2.20;;;19.80;99.90;;;;;;6149169;23;20203;-77
2022/08/03 00:38:31;;;;;;;6.50;2.70;;;19.70;99.90;;;;;;6197933;23;20317;-77
2022/08/03 00:40:57;;;;;;;8.32;2.83;;;19.60;99.90;;;;;;6148284;23;20017;-77
2022/08/03 00:43:26;;;;;;;7.72;2.45;;;19.70;99.90;;;;;;6197214;23;20107;-77
2022/08/03 00:45:53;;;;;;;7.82;2.92;;;19.70;99.90;;;;;;6148602;23;20008;-76
2022/08/03 00:48:19;;;;;;;5.88;2.53;;;19.70;99.90;;;;;;6171958;23;20226;-79
2022/08/03 00:50:46;;;;;;;4.32;2.30;;;19.70;99.90;;;;;;6173505;23;20026;-79
2022/08/03 00:53:13;;;;;;;6.88;2.85;;;19.70;99.90;;;;;;6172631;23;20021;-78
2022/08/03 00:55:42;;;;;;;8.02;3.05;;;19.60;99.90;;;;;;6171843;23;20012;-77
2022/08/03 00:58:10;;;;;;;4.78;2.40;;;19.70;99.90;;;;;;6147596;23;20243;-77
2022/08/03 01:00:37;;;;;;;8.75;2.88;;;19.60;99.90;;;;;;6196800;23;20032;-77
2022/08/03 01:03:04;;;;;;;4.85;2.22;;;19.60;99.90;;;;;;6197613;23;20071;-78
2022/08/03 01:05:53;;;;;;;8.27;2.92;;;19.60;99.90;;;;;;6123642;23;20195;-78
2022/08/03 01:08:30;;;;;;;3.28;2.30;;;19.60;99.90;;;;;;6194713;23;20171;-77
2022/08/03 01:11:11;;;;;;;6.43;2.30;;;19.60;99.90;;;;;;6173170;23;20009;-78
2022/08/03 01:14:13;;;;;;;5.25;2.38;;;19.50;99.90;;;;;;6172307;23;20020;-78
2022/08/03 01:16:46;;;;;;;9.63;2.80;;;19.50;99.90;;;;;;6141526;23;20210;-77
2022/08/03 01:19:27;;;;;;;6.40;2.35;;;19.40;99.90;;;;;;6171389;23;20382;-77
2022/08/03 01:22:34;;;;;;;6.88;2.08;;;19.40;99.90;;;;;;6197003;23;20009;-79
2022/08/03 01:25:48;;;;;;;5.45;2.30;;;19.40;99.90;;;;;;6147529;23;20008;-77
2022/08/03 01:28:38;;;;;;;5.97;2.40;;;19.30;99.90;;;;;;6063119;23;20015;-79
2022/08/03 01:31:10;;;;;;;7.68;2.50;;;19.20;99.90;;;;;;6172095;23;20008;-79
2022/08/03 01:33:45;;;;;;;6.78;2.78;;;19.30;99.90;;;;;;6172161;23;20016;-79
2022/08/03 01:36:20;;;;;;;4.25;2.28;;;19.20;99.90;;;;;;6173292;23;20008;-79
2022/08/03 01:39:10;;;;;;;3.90;1.98;;;19.10;99.90;;;;;;6172746;23;20017;-79
2022/08/03 01:41:59;;;;;;;9.93;2.70;;;19.10;99.90;;;;;;6172930;23;20023;-79
2022/08/03 01:44:30;;;;;;;5.80;2.08;;;19.20;99.90;;;;;;6172198;23;20008;-79
2022/08/03 01:47:00;;;;;;;7.20;2.30;;;19.10;99.90;;;;;;6148685;23;20015;-79
2022/08/03 01:49:28;;;;;;;4.63;2.22;;;19.00;99.90;;;;;;6172216;23;20016;-78
2022/08/03 01:51:55;;;;;;;5.43;2.20;;;19.00;99.90;;;;;;6196794;23;20009;-79
2022/08/03 01:54:23;;;;;;;3.75;1.90;;;19.10;99.90;;;;;;6171858;23;20008;-79
2022/08/03 01:56:51;;;;;;;3.67;1.90;;;19.10;99.90;;;;;;6173939;23;20191;-79
2022/08/03 01:59:19;;;;;;;6.50;2.67;;;19.00;99.90;;;;;;6198025;23;20020;-79
2022/08/03 02:01:47;;;;;;;5.57;2.58;;;19.20;99.90;;;;;;6148326;23;20009;-78
2022/08/03 02:04:16;;;;;;;2.97;1.90;;;19.10;99.90;;;;;;6173459;23;20015;-79
2022/08/03 02:06:45;;;;;;;3.05;1.92;;;19.10;99.90;;;;;;6172043;23;20295;-78
2022/08/03 02:09:13;;;;;;;8.05;2.38;;;19.10;99.90;;;;;;6172415;23;20008;-79
2022/08/03 02:11:41;;;;;;;6.25;1.90;;;19.00;99.90;;;;;;6197182;23;20026;-79
2022/08/03 02:14:08;;;;;;;7.07;2.20;;;19.10;99.90;;;;;;6172516;23;20016;-79
2022/08/03 02:16:35;;;;;;;5.57;1.95;;;19.10;99.90;;;;;;6172747;23;20040;-79
2022/08/03 02:19:05;;;;;;;5.38;2.00;;;19.00;99.90;;;;;;6172528;23;20028;-79
2022/08/03 02:21:34;;;;;;;4.15;2.00;;;19.00;99.90;;;;;;6172325;23;20032;-78
2022/08/03 02:24:00;;;;;;;6.72;2.00;;;19.10;99.90;;;;;;6171432;23;20072;-78
2022/08/03 02:26:29;;;;;;;5.13;1.73;;;19.00;99.90;;;;;;6172179;23;20034;-77
2022/08/03 02:28:58;;;;;;;3.40;1.75;;;19.00;99.90;;;;;;6196146;23;20008;-77
2022/08/03 02:31:28;;;;;;;4.90;2.50;;;19.00;99.90;;;;;;6171271;23;20314;-78
2022/08/03 02:33:58;;;;;;;5.88;1.80;;;19.00;99.90;;;;;;6171356;23;20194;-77
2022/08/03 02:36:29;;;;;;;5.38;1.90;;;19.10;99.90;;;;;;6196262;23;20047;-77
2022/08/03 02:38:58;;;;;;;3.53;1.98;;;19.00;99.90;;;;;;6170961;23;20012;-76
2022/08/03 02:41:30;;;;;;;4.85;1.90;;;19.20;99.90;;;;;;6171122;23;20082;-76
2022/08/03 02:43:59;;;;;;;8.77;2.30;;;19.20;99.90;;;;;;6195419;23;20067;-76
2022/08/03 02:46:31;;;;;;;5.82;2.08;;;19.10;99.90;;;;;;6171489;23;20055;-76
2022/08/03 02:49:00;;;;;;;3.85;2.42;;;19.00;99.90;;;;;;6171230;23;20377;-75
2022/08/03 02:51:29;;;;;;;4.55;2.25;;;19.00;99.90;;;;;;6171692;23;20047;-76
2022/08/03 02:53:56;;;;;;;6.95;2.25;;;19.10;99.90;;;;;;6170418;23;20047;-76
2022/08/03 02:56:24;;;;;;;3.88;1.92;;;19.10;99.90;;;;;;6171533;23;20402;-76
2022/08/03 02:58:51;;;;;;;4.82;2.05;;;19.00;99.90;;;;;;6171911;23;20012;-77
2022/08/03 03:01:20;;;;;;;7.15;2.40;;;19.00;99.90;;;;;;6196242;23;20055;-77
2022/08/03 03:03:47;;;;;;;5.07;1.80;;;19.00;99.90;;;;;;6171330;23;20017;-77
2022/08/03 03:06:15;;;;;;;4.00;1.80;;;19.00;99.90;;;;;;6146973;23;20016;-77
2022/08/03 03:08:42;;;;;;;4.50;2.08;;;19.00;99.90;;;;;;6195851;23;20031;-77
2022/08/03 03:11:09;;;;;;;6.50;1.88;;;19.00;99.90;;;;;;6171053;23;20352;-77
2022/08/03 03:13:36;;;;;;;4.93;2.08;;;19.00;99.90;;;;;;6146714;23;20021;-77
2022/08/03 03:16:03;;;;;;;5.25;1.88;;;19.10;99.90;;;;;;6171655;23;20062;-77
2022/08/03 03:18:34;;;;;;;4.25;2.10;;;19.10;99.90;;;;;;6170097;23;20019;-77
2022/08/03 03:21:04;;;;;;;4.25;1.60;;;18.90;99.90;;;;;;6146802;23;20036;-77
2022/08/03 03:23:34;;;;;;;4.90;1.83;;;19.00;99.90;;;;;;6194772;23;20011;-76
2022/08/03 03:26:01;;;;;;;2.95;1.67;;;19.00;99.90;;;;;;6196574;23;20009;-76
2022/08/03 03:28:28;;;;;;;4.82;2.20;;;19.10;99.90;;;;;;6170275;23;20021;-76
2022/08/03 03:30:53;;;;;;;6.13;2.22;;;19.00;99.90;;;;;;6196987;23;20012;-76
2022/08/03 03:33:21;;;;;;;3.55;2.00;;;19.10;99.90;;;;;;6194761;23;20012;-75
2022/08/03 03:35:47;;;;;;;4.13;1.73;;;19.00;99.90;;;;;;6170921;23;20314;-76
2022/08/03 03:38:13;;;;;;;4.70;1.95;;;19.10;99.90;;;;;;6195723;23;20013;-78
2022/08/03 03:40:39;;;;;;;5.88;1.80;;;19.00;99.90;;;;;;6147351;23;20047;-77
2022/08/03 03:43:09;;;;;;;7.95;2.00;;;19.00;99.90;;;;;;6170759;23;20195;-77
2022/08/03 03:45:36;;;;;;;5.82;2.00;;;19.10;99.90;;;;;;6171904;23;20230;-77
2022/08/03 03:48:04;;;;;;;5.72;2.20;;;19.00;99.90;;;;;;6196304;23;20176;-78
2022/08/03 03:50:35;;;;;;;6.20;2.10;;;18.90;99.90;;;;;;6195214;23;20020;-76
2022/08/03 03:53:02;;;;;;;8.88;2.20;;;19.00;99.90;;;;;;6169370;23;20349;-77
2022/08/03 03:55:28;;;;;;;6.57;2.38;;;19.00;99.90;;;;;;6145095;23;20078;-76
2022/08/03 03:57:53;;;;;;;4.40;2.08;;;19.00;99.90;;;;;;6195813;23;20020;-76
2022/08/03 04:00:19;;;;;;;6.18;2.20;;;18.90;99.90;;;;;;6195996;23;20017;-76
2022/08/03 04:02:45;;;;;;;7.65;2.45;;;19.00;99.90;;;;;;6195232;23;20298;-76
2022/08/03 04:11:10;;;;;;;5.38;2.25;;;19.10;99.90;;;;;;6196167;23;20040;-76
2022/08/03 04:13:48;;;;;;;6.20;2.45;;;18.90;99.90;;;;;;6169777;23;20067;-76
2022/08/03 04:16:17;;;;;;;4.68;2.20;;;19.10;99.90;;;;;;6194792;23;20009;-77
2022/08/03 04:18:48;;;;;;;6.40;2.80;;;19.00;99.90;;;;;;6194953;23;20181;-78
2022/08/03 04:21:17;;;;;;;6.53;2.33;;;18.90;99.90;;;;;;6170441;23;20017;-79
2022/08/03 04:23:47;;;;;;;7.05;2.40;;;19.00;99.90;;;;;;6170381;23;20291;-77
2022/08/03 04:26:16;;;;;;;7.88;2.85;;;19.00;99.90;;;;;;6170301;23;20168;-78
2022/08/03 04:28:44;;;;;;;7.45;2.95;;;19.00;99.90;;;;;;6169410;23;20088;-78
2022/08/03 04:31:12;;;;;;;6.90;2.45;;;19.00;99.90;;;;;;6196434;23;20306;-77
2022/08/03 04:33:38;;;;;;;6.82;2.63;;;19.10;99.90;;;;;;6146129;23;20020;-80
2022/08/03 04:36:07;;;;;;;6.95;2.50;;;19.10;99.90;;;;;;6170052;23;20047;-77
2022/08/03 04:38:39;;;;;;;5.35;2.55;;;19.10;99.90;;;;;;6194661;23;20032;-78
2022/08/03 04:41:06;;;;;;;8.07;2.53;;;19.20;99.90;;;;;;6196270;23;20008;-77
2022/08/03 04:43:33;;;;;;;8.70;3.40;;;19.10;99.90;;;;;;6170103;23;20015;-77
2022/08/03 04:46:00;;;;;;;8.90;2.65;;;19.20;99.90;;;;;;6195303;23;20043;-76
2022/08/03 04:48:27;;;;;;;4.90;2.30;;;19.00;99.90;;;;;;6194623;23;20086;-78
2022/08/03 04:50:53;;;;;;;9.77;2.80;;;19.10;99.90;;;;;;6145793;23;20025;-78
2022/08/03 04:53:19;;;;;;;9.75;2.60;;;19.10;99.90;;;;;;6145792;23;20021;-78
2022/08/03 04:55:44;;;;;;;4.55;2.35;;;19.20;99.90;;;;;;6147408;23;20362;-77
2022/08/03 04:58:11;;;;;;;10.90;2.40;;;19.20;99.90;;;;;;6171419;23;20313;-76
2022/08/03 05:00:37;;;;;;;5.13;2.80;;;19.30;99.90;;;;;;6171538;23;20035;-77
2022/08/03 05:03:02;;;;;;;5.80;2.67;;;19.20;99.90;;;;;;6195995;23;20016;-76
2022/08/03 05:05:28;;;;;;;6.00;2.67;;;19.30;99.90;;;;;;6196506;23;20068;-78
2022/08/03 05:07:55;;;;;;;6.95;2.85;;;19.40;99.90;;;;;;6171528;23;20102;-78
2022/08/03 05:10:20;;;;;;;5.55;2.40;;;19.50;99.90;;;;;;6172875;23;20022;-77
2022/08/03 05:12:47;;;;;;;5.57;2.58;;;19.40;99.90;;;;;;6171935;23;20012;-76
2022/08/03 05:15:14;;;;;;;3.90;2.35;;;19.50;99.90;;;;;;6197197;23;20012;-77
2022/08/03 05:17:40;;;;;;;5.47;2.70;;;19.40;99.90;;;;;;6171660;23;20371;-76
2022/08/03 05:20:06;;;;;;;5.28;2.50;;;19.30;99.90;;;;;;6195775;23;20139;-77
2022/08/03 05:22:32;;;;;;;8.18;2.75;;;19.50;99.90;;;;;;6195863;23;20067;-76
2022/08/03 05:24:59;;;;;;;7.32;2.60;;;19.50;99.90;;;;;;6171817;23;20016;-78
2022/08/03 05:27:25;;;;;;;6.57;2.80;;;19.60;99.90;;;;;;6147609;23;20019;-77
2022/08/03 05:29:51;;;;;;;4.13;2.35;;;19.40;99.90;;;;;;6171246;23;20048;-77
2022/08/03 05:32:17;;;;;;;6.90;3.15;;;19.40;99.90;;;;;;6197086;23;20036;-77
2022/08/03 05:34:43;;;;;;;5.45;2.60;;;19.60;99.90;;;;;;6171741;23;20091;-78
2022/08/03 05:37:10;;;;;;;8.20;2.72;;;19.50;99.90;;;;;;6197286;23;20250;-76
2022/08/03 05:39:36;;;;;;;6.10;2.80;;;19.70;99.90;;;;;;6170762;23;20330;-77
2022/08/03 05:42:02;;;;;;;6.78;2.83;;;19.60;99.90;;;;;;6198124;23;20009;-76
2022/08/03 05:44:29;;;;;;;8.75;2.78;;;19.70;99.90;;;;;;6149156;23;20016;-77
2022/08/03 05:46:55;;;;;;;4.47;2.47;;;19.60;99.90;;;;;;6197955;23;20360;-78
2022/08/03 05:49:21;;;;;;;5.53;2.78;;;19.60;99.90;;;;;;6172586;23;20028;-77
2022/08/03 05:51:46;;;;;;;6.53;3.10;;;19.60;99.90;;;;;;6147433;23;20107;-79
2022/08/03 05:54:12;;;;;;;9.73;3.47;;;19.70;99.90;;;;;;6147839;23;20378;-76
2022/08/03 05:56:39;;;;;;;5.60;3.35;;;19.70;99.90;;;;;;6123138;23;20019;-76
2022/08/03 05:59:05;;;;;;;5.43;2.42;;;19.90;99.90;;;;;;6148235;23;20094;-77
2022/08/03 06:01:31;;;;;;;7.22;2.50;;;19.90;99.90;;;;;;6171821;23;20225;-76
2022/08/03 06:03:58;;;;;;;8.27;2.67;;;19.70;99.90;;;;;;6196260;23;20008;-78
2022/08/03 06:06:24;;;;;;;5.93;2.42;;;19.80;99.90;;;;;;6196358;23;20008;-77
2022/08/03 06:08:50;;;;;;;7.82;2.72;;;20.00;99.90;;;;;;6196409;23;20012;-77
2022/08/03 06:11:16;;;;;;;6.43;2.70;;;20.00;99.90;;;;;;6172034;23;20012;-77
2022/08/03 06:13:42;;;;;;;7.47;2.80;;;19.90;99.90;;;;;;6193847;23;20020;-78
2022/08/03 06:16:08;;;;;;;8.77;2.95;;;20.00;99.90;;;;;;6195306;23;20019;-78
2022/08/03 06:18:34;;;;;;;8.05;2.95;;;19.90;99.90;;;;;;6195669;23;20028;-78
2022/08/03 06:21:00;;;;;;;8.38;3.13;;;20.10;99.90;;;;;;6170310;23;20032;-78
2022/08/03 06:23:25;;;;;;;6.35;2.40;;;20.00;99.90;;;;;;6146006;23;20098;-77
2022/08/03 06:25:51;;;;;;;8.38;3.20;;;20.30;99.90;;;;;;6195669;23;20305;-77
2022/08/03 06:28:17;;;;;;;6.75;2.50;;;20.20;99.90;;;;;;6195290;23;20020;-78
2022/08/03 06:30:43;;;;;;;7.18;2.72;;;20.30;99.90;;;;;;6195820;23;20092;-79
2022/08/03 06:33:09;;;;;;;7.47;3.00;;;20.40;99.90;;;;;;6194960;23;20012;-77
2022/08/03 06:35:35;;;;;;;7.75;3.20;;;20.30;99.90;;;;;;6146435;23;20019;-77
2022/08/03 06:38:01;;;;;;;5.28;2.53;;;20.30;99.90;;;;;;6195605;23;20058;-77
2022/08/03 06:40:28;;;;;;;7.25;2.75;;;20.40;99.90;;;;;;6171233;23;20619;-77
2022/08/03 06:42:58;;;;;;;8.32;2.75;;;20.60;99.90;;;;;;6170438;23;20008;-78
2022/08/03 06:45:24;;;;;;;8.18;2.70;;;20.80;99.90;;;;;;6195563;23;20008;-77
2022/08/03 06:48:00;;;;;;;6.75;3.05;;;20.80;99.90;;;;;;6194318;23;20110;-78
2022/08/03 06:50:26;;;;;;;5.55;2.28;;;20.70;99.90;;;;;;6196394;23;20059;-78
2022/08/03 06:52:52;;;;;;;7.07;2.60;;;20.70;99.90;;;;;;6196042;23;20021;-77
2022/08/03 06:55:18;;;;;;;10.75;3.05;;;21.00;99.90;;;;;;6146268;23;20226;-77
2022/08/03 06:57:43;;;;;;;7.57;2.80;;;20.90;99.90;;;;;;6145739;23;20406;-77
2022/08/03 07:00:10;;;;;;;8.55;2.38;;;20.90;99.90;;;;;;6146195;23;20009;-77
2022/08/03 07:02:37;;;;;;;6.75;2.80;;;21.10;99.90;;;;;;6146102;23;20023;-68
2022/08/03 07:05:02;;;;;;;8.77;3.05;;;21.20;99.90;;;;;;6193130;23;20004;-76
2022/08/03 07:07:28;;;;;;;6.75;2.90;;;21.20;99.90;;;;;;6195694;23;20090;-78
2022/08/03 07:09:54;;;;;;;5.82;2.88;;;21.30;99.90;;;;;;6171798;23;20001;-78
2022/08/03 07:12:20;;;;;;;8.63;2.70;;;21.30;99.90;;;;;;6173489;23;20238;-81
2022/08/03 07:14:46;;;;;;;7.03;3.13;;;21.50;99.90;;;;;;6147219;23;20020;-78
2022/08/03 07:17:11;;;;;;;7.22;2.80;;;21.40;99.90;;;;;;6195999;23;20062;-80
2022/08/03 07:19:38;;;;;;;5.80;2.65;;;21.60;99.90;;;;;;6172767;23;20098;-80
2022/08/03 07:22:04;;;;;;;8.10;3.00;;;21.50;99.90;;;;;;6171569;23;20075;-81
2022/08/03 07:24:30;;;;;;;7.40;2.90;;;21.60;99.90;;;;;;6147519;23;20389;-81
2022/08/03 07:26:56;;;;;;;6.28;2.38;;;21.60;99.90;;;;;;6147574;23;20067;-80
2022/08/03 07:29:22;;;;;;;8.57;2.83;;;21.70;99.90;;;;;;6148070;23;20008;-79
2022/08/03 07:31:47;;;;;;;9.35;3.50;;;21.60;99.90;;;;;;6147655;23;20020;-79
2022/08/03 07:34:13;;;;;;;8.02;2.95;;;21.70;99.90;;;;;;6145682;23;20175;-81
2022/08/03 07:36:39;;;;;;;7.05;3.35;;;21.70;99.90;;;;;;6168792;23;20024;-78
2022/08/03 07:39:05;;;;;;;8.18;2.95;;;22.00;99.90;;;;;;6169099;23;20076;-78
2022/08/03 07:41:30;;;;;;;5.78;2.50;;;22.00;99.90;;;;;;6169071;23;20402;-78
2022/08/03 07:43:56;;;;;;;4.93;2.72;;;22.00;99.90;;;;;;6168334;23;20176;-77
2022/08/03 07:46:22;;;;;;;7.70;2.80;;;22.00;99.90;;;;;;6168355;23;20332;-79
2022/08/03 07:48:47;;;;;;;5.40;2.80;;;22.10;99.90;;;;;;6192792;23;20067;-77
2022/08/03 07:51:13;;;;;;;9.57;3.45;;;22.10;99.90;;;;;;6192291;23;20021;-78
2022/08/03 07:53:39;;;;;;;8.50;3.42;;;22.10;99.90;;;;;;6167440;23;20036;-77
2022/08/03 07:56:05;;;;;;;5.25;2.65;;;22.10;99.90;;;;;;6166243;23;20343;-77
2022/08/03 07:58:31;;;;;;;9.07;3.17;;;22.30;99.90;;;;;;6168464;23;20013;-80
2022/08/03 08:00:56;;;;;;;9.75;2.78;;;22.30;99.90;;;;;;6171150;23;20008;-78
2022/08/03 08:03:22;;;;;;;5.82;2.97;;;22.40;99.90;;;;;;6170446;23;20069;-79
2022/08/03 08:05:48;;;;;;;7.22;2.95;;;22.30;99.90;;;;;;6145784;23;20024;-79
2022/08/03 08:08:14;;;;;;;6.95;3.30;;;22.30;99.90;;;;;;6171061;23;20013;-78
2022/08/03 08:10:40;;;;;;;6.25;3.17;;;22.40;99.90;;;;;;6171382;23;20012;-79
2022/08/03 08:13:05;;;;;;;7.00;3.00;;;22.40;99.90;;;;;;6169575;23;20076;-79
2022/08/03 08:15:31;;;;;;;7.78;2.90;;;22.50;99.90;;;;;;6170629;23;20021;-79
2022/08/03 08:17:59;;;;;;;9.90;3.70;;;22.60;99.90;;;;;;6170662;23;20017;-79
2022/08/03 08:20:28;;;;;;;8.40;3.53;;;22.60;99.90;;;;;;6146285;23;20366;-79
2022/08/03 08:23:00;;;;;;;6.72;3.05;;;22.50;99.90;;;;;;6195623;23;20023;-78
2022/08/03 08:25:26;;;;;;;9.25;2.75;;;22.60;99.90;;;;;;6146012;23;20009;-79
2022/08/03 08:27:52;;;;;;;8.23;3.20;;;22.80;99.90;;;;;;6169679;23;20246;-78
2022/08/03 08:30:20;;;;;;;9.60;3.20;;;22.90;99.90;;;;;;6172455;23;20067;-79
2022/08/03 08:32:47;;;;;;;6.47;3.33;;;23.00;99.90;;;;;;6171738;23;20020;-78
2022/08/03 08:35:13;;;;;;;7.40;3.13;;;23.00;99.90;;;;;;6147429;23;20020;-79
2022/08/03 08:37:39;;;;;;;9.48;3.17;;;23.10;99.90;;;;;;6198141;23;20076;-78
2022/08/03 08:40:06;;;;;;;7.90;2.97;;;23.10;99.90;;;;;;6147186;23;20020;-78
2022/08/03 08:42:32;;;;;;;11.25;3.22;;;23.30;99.90;;;;;;6171609;23;20012;-78
2022/08/03 08:45:00;;;;;;;7.22;2.72;;;23.40;99.90;;;;;;6169735;23;20015;-77
2022/08/03 08:47:29;;;;;;;8.82;2.80;;;23.60;99.90;;;;;;6197281;23;20099;-78
2022/08/03 08:49:57;;;;;;;7.03;3.00;;;23.50;99.90;;;;;;6170591;23;20031;-77
2022/08/03 08:52:28;;;;;;;8.77;3.58;;;23.60;99.90;;;;;;6196586;23;20017;-77
2022/08/03 08:54:57;;;;;;;7.57;3.00;;;23.70;99.90;;;;;;6147430;23;20055;-77
2022/08/03 08:57:34;;;;;;;6.22;2.70;;;23.90;99.90;;;;;;6172185;23;20012;-78
2022/08/03 09:00:01;;;;;;;8.20;3.35;;;23.90;99.90;;;;;;6197356;23;20016;-79
2022/08/03 09:02:30;;;;;;;8.82;3.13;;;23.90;99.90;;;;;;6171979;23;20016;-78
2022/08/03 09:04:56;;;;;;;5.30;3.25;;;24.00;99.90;;;;;;6197693;23;20015;-78
2022/08/03 09:07:22;;;;;;;6.90;2.90;;;24.00;99.90;;;;;;6195372;23;20211;-79
2022/08/03 09:09:48;;;;;;;8.18;2.92;;;24.20;99.90;;;;;;6146830;23;20012;-79
2022/08/03 09:12:14;;;;;;;9.40;2.90;;;24.40;99.90;;;;;;6121771;23;20051;-79
2022/08/03 09:14:40;;;;;;;9.77;3.30;;;24.40;99.90;;;;;;6147205;23;20338;-79
2022/08/03 09:17:06;;;;;;;9.10;3.00;;;24.40;99.90;;;;;;6146342;23;20219;-79
2022/08/03 09:19:33;;;;;;;10.23;2.88;;;24.40;99.90;;;;;;6122981;23;20016;-76
2022/08/03 09:22:08;;;;;;;5.95;2.83;;;24.40;99.90;;;;;;6170257;23;20357;-76
2022/08/03 09:24:35;;;;;;;8.73;3.10;;;24.40;99.90;;;;;;6172195;23;20303;-79
2022/08/03 09:27:00;;;;;;;8.55;2.78;;;24.60;99.90;;;;;;6146048;23;20051;-78
2022/08/03 09:29:31;;;;;;;5.93;2.85;;;24.80;99.90;;;;;;6195804;23;20008;-78
2022/08/03 09:32:02;;;;;;;7.70;2.78;;;24.80;99.90;;;;;;6195318;23;20020;-79
2022/08/03 09:34:29;;;;;;;7.03;2.90;;;25.00;99.90;;;;;;6171586;23;20027;-79
2022/08/03 09:36:56;;;;;;;6.45;2.88;;;25.10;99.90;;;;;;6147174;23;20036;-79
2022/08/03 09:39:30;;;;;;;7.85;3.28;;;25.00;99.90;;;;;;6147403;23;20016;-79
2022/08/03 09:42:09;;;;;;;;;;;25.10;99.90;;;;;;6172000;23;20020;-78
2022/08/03 09:44:50;;;;;;;8.77;2.97;;;25.10;99.90;;;;;;6196111;23;19931;-79
2022/08/03 09:47:27;;;;;;;6.38;3.17;;;25.80;99.90;;;;;;6171174;23;20035;-80
2022/08/03 09:50:06;;;;;;;7.05;2.70;;;26.10;99.90;;;;;;6195747;23;20024;-78
2022/08/03 09:52:42;;;;;;;7.15;3.08;;;26.20;99.90;;;;;;6195300;23;20031;-79
2022/08/03 09:55:11;;;;;;;6.40;3.00;;;26.50;99.90;;;;;;6190688;23;20218;-79
2022/08/03 09:57:37;;;;;;;5.40;3.10;;;26.50;99.90;;;;;;6195274;23;20012;-79
2022/08/03 10:00:11;;;;;;;5.43;2.35;;;26.80;99.90;;;;;;6169246;23;20016;-78
2022/08/03 10:02:38;;;;;;;7.22;2.97;;;27.00;99.90;;;;;;6171460;23;20016;-79
2022/08/03 10:05:05;;;;;;;9.18;2.95;;;27.00;99.90;;;;;;6170571;23;20012;-79
2022/08/03 10:07:48;;;;;;;6.68;2.95;;;27.30;99.90;;;;;;6194538;23;20024;-79
2022/08/03 10:10:15;;;;;;;7.50;2.80;;;27.20;99.90;;;;;;6145819;23;20326;-79
2022/08/03 10:12:42;;;;;;;8.48;2.60;;;27.60;99.90;;;;;;6170370;23;20067;-79
2022/08/03 10:15:09;;;;;;;5.13;2.80;;;27.90;99.90;;;;;;6170586;23;20055;-80
2022/08/03 10:17:35;;;;;;;5.93;2.97;;;28.10;99.90;;;;;;6169465;23;20071;-80
2022/08/03 10:20:02;;;;;;;9.52;2.63;;;27.90;99.90;;;;;;6146932;23;20023;-79
2022/08/03 10:22:34;;;;;;;6.10;2.75;;;27.90;99.90;;;;;;6195255;23;20023;-79
2022/08/03 10:25:06;;;;;;;5.93;2.63;;;28.10;99.90;;;;;;6170936;23;20298;-80
2022/08/03 10:27:45;;;;;;;8.90;2.75;;;28.10;99.90;;;;;;6169392;23;20021;-79
2022/08/03 10:30:11;;;;;;;8.25;2.53;;;28.20;99.90;;;;;;6194435;23;20043;-78
2022/08/03 10:32:49;;;;;;;7.43;2.83;;;28.50;99.90;;;;;;6144659;23;20318;-78
2022/08/03 10:35:18;;;;;;;8.57;3.13;;;28.80;99.90;;;;;;6169894;23;20020;-79
2022/08/03 10:37:52;;;;;;;8.18;2.72;;;28.70;99.90;;;;;;6167752;23;20040;-76
2022/08/03 10:40:20;;;;;;;6.63;2.50;;;28.50;99.90;;;;;;6195120;23;20015;-79
2022/08/03 10:42:50;;;;;;;6.05;2.58;;;28.30;99.90;;;;;;6194850;23;20015;-80
2022/08/03 10:45:23;;;;;;;7.05;3.30;;;28.20;99.90;;;;;;6170159;23;20008;-80
2022/08/03 10:47:50;;;;;;;5.38;2.33;;;28.10;99.90;;;;;;6171506;23;20318;-79
2022/08/03 10:50:17;;;;;;;6.55;2.83;;;28.10;99.90;;;;;;6170678;23;20104;-79
2022/08/03 10:52:57;;;;;;;11.85;2.55;;;28.30;99.90;;;;;;6171909;23;20028;-80
2022/08/03 10:58:15;;;;;;;6.07;2.40;;;28.50;99.90;;;;;;6195330;23;20062;-80
2022/08/03 11:01:25;;;;;;;8.10;2.50;;;28.60;99.90;;;;;;6148039;23;20062;-80
2022/08/03 11:03:53;;;;;;;8.18;2.53;;;28.10;99.90;;;;;;6171277;23;20071;-80
2022/08/03 11:06:26;;;;;;;7.78;2.92;;;28.40;99.90;;;;;;6172126;23;20055;-80
2022/08/03 11:12:33;;;;;;;9.48;2.63;;;28.20;99.90;;;;;;6219707;23;20095;-83
2022/08/03 11:15:03;;;;;;;8.98;2.80;;;28.00;99.90;;;;;;6161762;23;20020;-81
2022/08/03 11:17:30;;;;;;;8.88;2.70;;;27.60;99.90;;;;;;6193664;23;20019;-79
2022/08/03 11:19:56;;;;;;;8.70;3.42;;;27.60;99.90;;;;;;6194822;23;20067;-79
2022/08/03 11:26:14;;;;;;;8.35;2.70;;;28.20;99.90;;;;;;6127115;23;20036;-79
2022/08/03 11:28:41;;;;;;;5.55;2.30;;;28.90;99.90;;;;;;6095641;23;20025;-79
2022/08/03 11:31:23;;;;;;;9.80;3.20;;;29.10;99.90;;;;;;6098508;23;20010;-78
2022/08/03 11:34:09;;;;;;;11.10;3.13;;;28.90;99.90;;;;;;6103927;23;20073;-78
2022/08/03 11:37:12;;;;;;;7.82;2.90;;;28.70;99.90;;;;;;6081951;23;20193;-79
2022/08/03 11:39:45;;;;;;;8.38;2.63;;;29.00;99.90;;;;;;6082845;23;20109;-79
2022/08/03 11:42:22;;;;;;;9.88;2.92;;;29.30;99.90;;;;;;6106225;23;20093;-79
2022/08/03 11:44:53;;;;;;;8.45;2.70;;;28.80;99.90;;;;;;6106478;23;20014;-79
2022/08/03 11:47:24;;;;;;;7.38;3.20;;;29.10;99.90;;;;;;6081718;23;20473;-78
2022/08/03 11:49:53;;;;;;;8.75;3.15;;;29.00;99.90;;;;;;6083210;23;20021;-79
2022/08/03 11:52:21;;;;;;;14.57;2.80;;;29.50;99.90;;;;;;6082679;23;20193;-84
2022/08/03 11:54:50;;;;;;;9.27;3.20;;;29.60;99.90;;;;;;6037094;23;20013;-83
2022/08/03 11:57:37;;;;;;;7.15;2.70;;;29.50;99.90;;;;;;6105731;23;20186;-79
2022/08/03 12:00:19;;;;;;;7.50;3.25;;;29.50;99.90;;;;;;6082898;23;20010;-79
2022/08/03 12:02:57;;;;;;;8.70;3.67;;;29.90;99.90;;;;;;6107495;23;20049;-78
2022/08/03 12:06:01;;;;;;;8.35;3.20;;;30.00;99.90;;;;;;6110352;23;20196;-78
2022/08/03 12:08:26;;;;;;;7.88;2.95;;;29.80;99.90;;;;;;6056688;23;20056;-79
2022/08/03 12:10:54;;;;;;;8.00;2.67;;;29.70;99.90;;;;;;6176744;23;20299;-79
2022/08/03 12:13:22;;;;;;;11.55;3.35;;;29.80;99.90;;;;;;6171966;23;20048;-79
2022/08/03 12:15:56;;;;;;;9.52;3.20;;;29.80;99.90;;;;;;6197362;23;20028;-78
2022/08/03 12:18:23;;;;;;;8.27;3.10;;;30.00;99.90;;;;;;6196754;23;20012;-79
2022/08/03 12:20:50;;;;;;;13.35;3.83;;;30.00;99.90;;;;;;6192923;23;20186;-79
2022/08/03 12:23:17;;;;;;;8.60;3.22;;;29.80;99.90;;;;;;6172143;23;20080;-79
2022/08/03 12:25:44;;;;;;;14.38;3.38;;;29.90;99.90;;;;;;6198205;23;20043;-79
2022/08/03 12:55:32;;;;;;;8.25;3.25;;;30.40;99.90;;;;;;6184808;23;20023;-76
2022/08/03 13:01:39;;;;;;;11.07;3.00;;;30.50;99.90;;;;;;6179353;23;20121;-79
2022/08/03 13:04:05;;;;;;;9.45;3.15;;;30.40;99.90;;;;;;6134184;23;20441;-79
2022/08/03 13:06:31;;;;;;;11.52;3.47;;;30.50;99.90;;;;;;6135103;23;20009;-79
2022/08/03 13:09:06;;;;;;;10.75;3.72;;;30.30;99.90;;;;;;6134982;23;20097;-79
2022/08/03 13:11:33;;;;;;;9.93;3.03;;;30.10;99.90;;;;;;6135402;23;20024;-77
2022/08/03 13:13:59;;;;;;;12.23;3.17;;;30.10;99.90;;;;;;6134080;23;20013;-78
2022/08/03 13:16:25;;;;;;;9.32;2.53;;;30.10;99.90;;;;;;6133696;23;20019;-78
2022/08/03 13:18:52;;;;;;;8.57;3.20;;;30.70;99.90;;;;;;6133700;23;20092;-78
2022/08/03 13:21:19;;;;;;;10.32;3.15;;;30.20;99.90;;;;;;6133682;23;20009;-78
2022/08/03 13:23:45;;;;;;;11.85;3.78;;;30.10;99.90;;;;;;6133330;23;20360;-78
2022/08/03 13:26:11;;;;;;;10.38;3.00;;;30.30;99.90;;;;;;6109051;23;20044;-78
2022/08/03 13:28:38;;;;;;;12.57;3.47;;;30.30;99.90;;;;;;6132742;23;20024;-78
2022/08/03 13:31:05;;;;;;;9.80;3.30;;;30.60;99.90;;;;;;6131980;23;20378;-78
2022/08/03 13:33:31;;;;;;;10.38;3.38;;;30.70;99.90;;;;;;6132578;23;20079;-78
2022/08/03 13:35:57;;;;;;;8.00;3.25;;;30.80;99.90;;;;;;6156211;23;20020;-78
2022/08/03 13:38:23;;;;;;;6.97;3.13;;;30.70;99.90;;;;;;6156418;23;20024;-78
2022/08/03 13:40:51;;;;;;;11.05;3.13;;;30.90;99.90;;;;;;6132332;23;20013;-78
2022/08/03 13:43:16;;;;;;;9.85;3.50;;;30.80;99.90;;;;;;6131776;23;20013;-78